Time;durP1;ratioP1;P1;durP2;ratioP2;P2;SDS_P1;SDS_P2;PMS_P1;PMS_P2;Temp;Humidity;BMP_temperature;BMP_pressure;BME280_temperature;BME280_humidity;BME280_pressure;Samples;Min_cycle;Max_cycle;Signal;HPM_P1;HPM_P2
2024/02/18 00:19:50;;;;;;;33.28;6.60;;;;;;;11.95;100.00;101078.13;4894473;29;20135;-93
2024/02/18 00:22:47;;;;;;;27.20;5.55;;;;;;;11.96;100.00;101082.47;4855115;29;20124;-93
2024/02/18 00:26:00;;;;;;;29.73;4.72;;;;;;;11.97;100.00;101092.06;4861267;29;20057;-93
2024/02/18 00:28:55;;;;;;;27.90;5.22;;;;;;;11.96;100.00;101077.97;4870990;29;20127;-95
2024/02/18 00:32:35;;;;;;;25.38;4.97;;;;;;;11.99;100.00;101088.31;4864533;29;20068;-95
2024/02/18 03:34:13;;;;;;;24.77;4.88;;;;;;;11.19;100.00;101090.88;4887920;29;20041;-95
2024/02/18 04:13:34;;;;;;;;;;;;;;;;;;;;;
2024/02/18 04:26:35;;;;;;;;;;;;;;;;;;;;;
2024/02/18 04:48:49;;;;;;;;;;;;;;;;;;;;;
2024/02/18 06:43:52;;;;;;;8.75;2.50;;;;;;;10.62;100.00;101200.47;4886047;29;20100;-94
2024/02/18 08:36:09;;;;;;;27.17;10.95;;;;;;;10.36;100.00;101368.09;5410559;23;20123;-96
2024/02/18 08:38:47;;;;;;;27.35;10.38;;;;;;;10.38;100.00;101371.44;4916070;29;20036;-96
2024/02/18 08:41:17;;;;;;;34.35;11.85;;;;;;;10.40;100.00;101376.63;4919458;29;20046;-96
2024/02/18 08:43:45;;;;;;;60.55;23.80;;;;;;;10.42;100.00;101366.75;4920437;29;20028;-96
2024/02/18 08:46:17;;;;;;;69.30;24.67;;;;;;;10.49;100.00;101375.94;4897641;29;20032;-96
2024/02/18 08:48:44;;;;;;;62.88;22.33;;;;;;;10.51;100.00;101383.75;4917568;29;20042;-96
2024/02/18 08:51:15;;;;;;;23.52;8.52;;;;;;;10.51;100.00;101389.84;4919282;29;20047;-96
2024/02/18 08:53:46;;;;;;;14.98;4.43;;;;;;;10.51;100.00;101387.22;4921183;29;20035;-96
2024/02/18 08:56:16;;;;;;;9.23;2.47;;;;;;;10.53;100.00;101382.66;4917023;29;20031;-96
2024/02/18 09:22:59;;;;;;;8.65;1.40;;;;;;;10.58;100.00;101426.38;5511416;23;20059;-96
2024/02/18 09:25:29;;;;;;;13.73;1.80;;;;;;;10.59;100.00;101436.03;4934816;29;20043;-96
2024/02/18 09:28:15;;;;;;;9.52;1.65;;;;;;;10.61;100.00;101436.72;4908461;29;20028;-96
2024/02/18 09:30:49;;;;;;;12.68;1.73;;;;;;;10.62;100.00;101438.41;4924172;29;20043;-96
2024/02/18 09:39:22;;;;;;;15.23;2.05;;;;;;;10.79;100.00;101451.16;5033729;23;20047;-92
2024/02/18 09:42:53;;;;;;;10.60;2.00;;;;;;;10.94;100.00;101461.47;4936465;29;20050;-93
2024/02/18 09:48:24;;;;;;;14.23;2.13;;;;;;;11.11;100.00;101477.81;5020381;23;20043;-96
2024/02/18 09:50:54;;;;;;;11.90;1.88;;;;;;;11.21;100.00;101489.34;4911786;29;20749;-96
2024/02/18 09:53:34;;;;;;;11.55;1.85;;;;;;;11.28;100.00;101495.84;5068544;24;20043;-95
2024/02/18 09:56:10;;;;;;;6.93;1.85;;;;;;;11.33;100.00;101499.91;4950666;29;20064;-96
2024/02/18 09:59:04;;;;;;;10.75;2.20;;;;;;;11.41;100.00;101500.16;4948603;29;20130;-96
2024/02/18 10:01:54;;;;;;;12.27;2.28;;;;;;;11.45;100.00;101517.44;4947839;29;20059;-96
2024/02/18 10:05:04;;;;;;;10.65;2.53;;;;;;;11.41;100.00;101519.53;4924049;29;20050;-96
2024/02/18 10:07:59;;;;;;;11.57;1.80;;;;;;;11.38;100.00;101534.81;4923091;29;20064;-96
2024/02/18 10:11:00;;;;;;;15.85;4.38;;;;;;;11.33;100.00;101537.81;4953476;29;20075;-95
2024/02/18 10:13:35;;;;;;;14.25;4.57;;;;;;;11.22;100.00;101546.63;4938457;29;20052;-96
2024/02/18 10:16:49;;;;;;;12.70;3.58;;;;;;;11.18;100.00;101539.03;4968128;28;20031;-96
2024/02/18 10:19:25;;;;;;;12.45;2.72;;;;;;;11.23;100.00;101545.66;4945260;28;20047;-96
2024/02/18 10:21:56;;;;;;;9.57;1.95;;;;;;;11.28;100.00;101547.94;4949356;29;20043;-95
2024/02/18 10:24:27;;;;;;;12.30;5.32;;;;;;;11.41;100.00;101548.66;4914036;29;20047;-95
2024/02/18 10:27:05;;;;;;;15.90;4.93;;;;;;;11.45;100.00;101557.16;4910028;29;20050;-95
2024/02/18 10:29:51;;;;;;;14.02;5.32;;;;;;;11.52;100.00;101554.88;4935423;28;20041;-96
2024/02/18 10:33:14;;;;;;;14.52;2.55;;;;;;;11.65;100.00;101568.81;4934773;23;20098;-92
2024/02/18 10:36:31;;;;;;;8.68;2.13;;;;;;;11.61;100.00;101567.38;4876822;29;20431;-93
2024/02/18 10:39:03;;;;;;;13.32;3.75;;;;;;;11.61;100.00;101585.09;4907480;24;20055;-92
2024/02/18 10:41:40;;;;;;;7.60;1.30;;;;;;;11.65;100.00;101583.88;4899840;29;20076;-94
2024/02/18 10:44:11;;;;;;;8.40;1.42;;;;;;;11.59;100.00;101587.00;4919329;29;20158;-95
2024/02/18 10:46:45;;;;;;;9.77;1.73;;;;;;;11.63;100.00;101597.22;4888476;29;20044;-94
2024/02/18 10:49:31;;;;;;;8.45;1.83;;;;;;;11.67;100.00;101592.53;4907244;29;20039;-95
2024/02/18 10:52:20;;;;;;;10.73;4.45;;;;;;;11.81;100.00;101579.97;4920829;29;20099;-94
2024/02/18 10:55:03;;;;;;;15.23;4.68;;;;;;;12.00;100.00;101590.78;4896021;29;20089;-94
2024/02/18 10:57:39;;;;;;;4.78;1.58;;;;;;;12.01;100.00;101581.84;4912892;29;20133;-94
2024/02/18 11:00:14;;;;;;;7.53;1.63;;;;;;;11.96;100.00;101576.06;4887494;29;20054;-93
2024/02/18 11:03:16;;;;;;;5.32;1.52;;;;;;;12.02;100.00;101580.03;4905664;29;20046;-93
2024/02/18 11:19:38;;;;;;;9.77;2.20;;;;;;;12.20;100.00;101587.47;4879478;29;20090;-94
2024/02/18 11:22:52;;;;;;;8.52;1.83;;;;;;;12.25;100.00;101585.28;4894568;29;20038;-95
2024/02/18 11:29:45;;;;;;;10.15;1.30;;;;;;;12.48;100.00;101595.78;4896665;29;20063;-93
2024/02/18 11:36:12;;;;;;;7.20;2.25;;;;;;;12.44;100.00;101624.34;4917561;29;20052;-94
2024/02/18 11:39:09;;;;;;;7.68;3.13;;;;;;;12.31;100.00;101615.75;4890360;29;20068;-94
2024/02/18 11:42:10;;;;;;;8.30;1.83;;;;;;;12.39;100.00;101640.66;4929328;29;20040;-93
2024/02/18 11:44:54;;;;;;;7.75;2.03;;;;;;;12.50;100.00;101652.19;4888493;29;20068;-93
2024/02/18 11:47:22;;;;;;;7.95;1.73;;;;;;;12.45;100.00;101654.38;4914936;29;20035;-93
2024/02/18 11:49:57;;;;;;;7.57;2.75;;;;;;;12.50;100.00;101652.19;4886164;29;20040;-94
2024/02/18 11:52:29;;;;;;;4.93;1.35;;;;;;;12.39;100.00;101655.75;4907812;29;20106;-94
2024/02/18 11:55:01;;;;;;;8.60;2.22;;;;;;;12.36;100.00;101648.84;4903843;29;20479;-94
2024/02/18 11:58:18;;;;;;;6.03;1.90;;;;;;;12.33;100.00;101654.41;4910334;29;20047;-92
2024/02/18 12:01:21;;;;;;;10.98;2.20;;;;;;;12.27;100.00;101652.28;4841920;29;20038;-94
2024/02/18 12:07:44;;;;;;;5.80;1.00;;;;;;;12.37;100.00;101652.34;4900776;29;20130;-94
2024/02/18 12:10:57;;;;;;;7.97;2.10;;;;;;;12.54;100.00;101664.22;4921807;29;20095;-95
2024/02/18 12:14:16;;;;;;;11.73;1.65;;;;;;;12.69;100.00;101656.81;4883159;29;20051;-93
2024/02/18 12:16:56;;;;;;;8.85;1.65;;;;;;;12.90;100.00;101658.59;4899161;29;20051;-93
2024/02/18 12:19:22;;;;;;;7.45;1.60;;;;;;;12.93;100.00;101652.22;4901729;29;20486;-91
2024/02/18 12:22:26;;;;;;;5.07;1.10;;;;;;;13.12;100.00;101662.09;4900123;29;20039;-91
2024/02/18 12:25:09;;;;;;;8.98;1.42;;;;;;;13.15;100.00;101659.19;4925695;29;20114;-91
2024/02/18 12:27:53;;;;;;;7.22;1.02;;;;;;;13.29;100.00;101655.34;4910456;29;20044;-91
2024/02/18 12:30:21;;;;;;;4.30;0.90;;;;;;;13.31;100.00;101660.53;4907988;29;20105;-90
2024/02/18 12:32:51;;;;;;;5.65;1.10;;;;;;;13.36;100.00;101647.69;4902904;29;20039;-93
2024/02/18 12:35:50;;;;;;;6.45;0.90;;;;;;;13.35;100.00;101646.00;4940710;28;20490;-94
2024/02/18 12:39:07;;;;;;;4.82;0.82;;;;;;;13.40;100.00;101654.41;4911581;29;20061;-93
2024/02/18 12:41:57;;;;;;;5.70;1.00;;;;;;;13.24;100.00;101644.28;4913975;29;20063;-94
2024/02/18 12:44:26;;;;;;;6.50;0.60;;;;;;;13.13;100.00;101647.84;4918103;29;20047;-92
2024/02/18 12:46:59;;;;;;;4.68;0.90;;;;;;;13.02;100.00;101646.97;4891950;29;20047;-94
2024/02/18 12:49:31;;;;;;;7.78;1.33;;;;;;;12.96;100.00;101646.66;4885054;29;20067;-94
2024/02/18 12:52:08;;;;;;;6.05;1.17;;;;;;;13.06;100.00;101649.38;4921478;29;20039;-94
2024/02/18 12:55:08;;;;;;;5.38;1.33;;;;;;;13.11;100.00;101666.56;4891010;29;20493;-94
2024/02/18 12:58:07;;;;;;;6.25;2.03;;;;;;;13.14;100.00;101666.31;4912586;29;20043;-93
2024/02/18 13:00:33;;;;;;;9.63;2.67;;;;;;;13.14;100.00;101655.69;4904386;29;20039;-93
2024/02/18 13:03:17;;;;;;;14.05;3.80;;;;;;;13.15;100.00;101670.63;4880593;29;20069;-95
2024/02/18 13:05:49;;;;;;;11.27;3.17;;;;;;;13.06;100.00;101665.28;4882506;29;20047;-93
2024/02/18 13:08:17;;;;;;;11.88;2.80;;;;;;;13.07;100.00;101662.50;4918996;29;20082;-95
2024/02/18 13:10:46;;;;;;;11.63;2.13;;;;;;;13.30;100.00;101667.63;4882356;29;20035;-94
2024/02/18 13:13:25;;;;;;;12.35;2.45;;;;;;;13.48;100.00;101667.88;4902508;29;20040;-92
2024/02/18 13:15:54;;;;;;;7.07;1.65;;;;;;;13.58;100.00;101670.59;4904133;29;20051;-93
2024/02/18 13:18:23;;;;;;;8.20;1.17;;;;;;;13.52;100.00;101661.34;4903145;29;20075;-93
2024/02/18 13:20:55;;;;;;;7.80;1.65;;;;;;;13.58;100.00;101664.44;4901530;29;20044;-93
2024/02/18 13:23:30;;;;;;;9.00;2.47;;;;;;;13.64;100.00;101667.41;4905804;29;20031;-94
2024/02/18 13:26:14;;;;;;;9.55;2.47;;;;;;;13.77;100.00;101661.00;4903709;29;20071;-93
2024/02/18 13:28:52;;;;;;;10.13;2.22;;;;;;;13.60;100.00;101658.00;4904410;29;20043;-92
2024/02/18 13:31:27;;;;;;;10.80;3.25;;;;;;;13.63;100.00;101665.72;4887719;29;20036;-93
2024/02/18 13:33:58;;;;;;;10.38;3.45;;;;;;;13.45;100.00;101665.50;4900099;29;20076;-93
2024/02/18 13:36:31;;;;;;;10.73;3.00;;;;;;;13.44;100.00;101661.13;4918817;29;20126;-94
2024/02/18 13:39:15;;;;;;;10.43;2.80;;;;;;;13.32;100.00;101673.66;4911696;29;20074;-93
2024/02/18 13:41:41;;;;;;;12.25;3.13;;;;;;;13.28;100.00;101664.28;4905965;29;20031;-94
2024/02/18 13:44:13;;;;;;;10.10;2.00;;;;;;;13.27;100.00;101659.94;4913493;29;20038;-93
2024/02/18 13:46:49;;;;;;;12.25;2.65;;;;;;;13.24;100.00;101654.91;4908630;29;20044;-95
2024/02/18 13:49:18;;;;;;;8.50;1.60;;;;;;;13.21;100.00;101648.03;4896278;29;20044;-93
2024/02/18 13:51:50;;;;;;;14.70;3.00;;;;;;;13.27;100.00;101641.34;4889270;29;20043;-94
2024/02/18 13:54:26;;;;;;;10.85;3.00;;;;;;;13.39;100.00;101642.13;4901506;29;20435;-94
2024/02/18 13:56:52;;;;;;;13.45;2.85;;;;;;;13.46;100.00;101653.88;4933956;29;20106;-94
2024/02/18 13:59:21;;;;;;;15.88;3.08;;;;;;;13.55;100.00;101657.59;4919700;29;20031;-92
2024/02/18 14:01:57;;;;;;;18.25;4.38;;;;;;;13.66;100.00;101658.47;4903795;29;20364;-93
2024/02/18 14:04:34;;;;;;;15.00;2.58;;;;;;;13.67;100.00;101660.97;4908610;29;20144;-92
2024/02/18 14:07:02;;;;;;;20.92;3.88;;;;;;;13.62;100.00;101663.19;4893239;29;20043;-95
2024/02/18 14:09:29;;;;;;;21.65;3.63;;;;;;;13.67;100.00;101668.94;4893995;29;20044;-92
2024/02/18 14:12:07;;;;;;;17.10;3.30;;;;;;;13.70;100.00;101650.06;4890741;29;20035;-94
2024/02/18 14:14:33;;;;;;;18.42;3.88;;;;;;;13.67;100.00;101654.81;4891182;29;20039;-94
2024/02/18 14:16:59;;;;;;;17.38;3.25;;;;;;;13.70;100.00;101659.84;4912686;29;20043;-93
2024/02/18 14:19:25;;;;;;;15.95;3.75;;;;;;;13.67;100.00;101658.31;4892816;29;20043;-92
2024/02/18 14:21:54;;;;;;;12.25;3.10;;;;;;;13.58;100.00;101659.13;4922419;29;20039;-93
2024/02/18 14:24:22;;;;;;;12.40;3.13;;;;;;;13.60;100.00;101647.38;4893607;29;20031;-92
2024/02/18 14:26:48;;;;;;;16.83;4.82;;;;;;;13.62;100.00;101655.22;4891632;29;20035;-93
2024/02/18 14:29:18;;;;;;;13.90;2.60;;;;;;;13.61;100.00;101664.19;4921693;29;20110;-93
2024/02/18 14:31:44;;;;;;;15.70;3.63;;;;;;;13.63;100.00;101660.41;4908983;29;20035;-91
2024/02/18 14:34:12;;;;;;;15.65;3.65;;;;;;;13.74;100.00;101661.28;4898923;29;20040;-91
2024/02/18 14:36:43;;;;;;;16.00;2.95;;;;;;;13.96;100.00;101676.19;4908981;29;20043;-93
2024/02/18 14:39:26;;;;;;;12.50;2.00;;;;;;;14.05;100.00;101671.03;4905439;29;20043;-94
2024/02/18 14:41:54;;;;;;;16.58;2.88;;;;;;;13.99;100.00;101665.28;4896195;29;20502;-92
2024/02/18 14:44:28;;;;;;;16.63;2.70;;;;;;;13.98;100.00;101665.41;4905496;29;20075;-91
2024/02/18 14:47:03;;;;;;;17.85;4.05;;;;;;;14.01;100.00;101668.59;4904557;29;20056;-94
2024/02/18 14:49:37;;;;;;;16.67;3.67;;;;;;;13.96;100.00;101665.53;4896417;29;20126;-95
2024/02/18 14:52:45;;;;;;;10.88;2.28;;;;;;;13.85;100.00;101684.25;4925291;29;20090;-94
2024/02/18 14:55:11;;;;;;;9.27;1.83;;;;;;;13.64;100.00;101682.50;4891916;29;20047;-93
2024/02/18 14:57:40;;;;;;;7.97;2.05;;;;;;;13.67;100.00;101678.72;4890040;29;20067;-93
2024/02/18 15:00:08;;;;;;;6.18;1.30;;;;;;;13.64;100.00;101671.88;4901931;29;20115;-93
2024/02/18 15:02:36;;;;;;;13.50;2.33;;;;;;;13.63;100.00;101670.19;4904806;29;20051;-93
2024/02/18 15:05:12;;;;;;;11.30;2.22;;;;;;;13.67;100.00;101652.16;4919947;29;20040;-94
2024/02/18 15:07:50;;;;;;;12.20;2.20;;;;;;;13.56;100.00;101638.00;4900232;29;20142;-93
2024/02/18 15:10:16;;;;;;;11.15;2.50;;;;;;;13.55;100.00;101641.66;4899606;29;20028;-92
2024/02/18 15:12:42;;;;;;;13.70;2.53;;;;;;;13.60;100.00;101644.72;4888418;29;20058;-91
2024/02/18 15:15:08;;;;;;;14.45;2.55;;;;;;;13.62;100.00;101629.50;4935533;29;20047;-90
2024/02/18 15:17:35;;;;;;;14.07;2.58;;;;;;;13.78;100.00;101644.09;4905729;29;20049;-92
2024/02/18 15:20:03;;;;;;;16.08;2.10;;;;;;;13.78;100.00;101628.13;4903633;29;20136;-93
2024/02/18 15:22:34;;;;;;;21.77;3.00;;;;;;;13.91;100.00;101633.22;4904013;29;20036;-93
2024/02/18 15:25:01;;;;;;;16.42;2.72;;;;;;;13.95;100.00;101628.47;4917563;29;20117;-92
2024/02/18 15:27:27;;;;;;;14.60;2.67;;;;;;;13.97;100.00;101626.50;4895228;29;20048;-92
2024/02/18 15:29:58;;;;;;;21.48;3.72;;;;;;;14.04;100.00;101629.44;4930036;29;20043;-96
2024/02/18 15:32:40;;;;;;;15.68;2.50;;;;;;;13.90;100.00;101620.91;4908044;29;20167;-93
2024/02/18 15:38:41;;;;;;;18.02;3.03;;;;;;;13.92;100.00;101634.88;4906700;28;20059;-92
2024/02/18 15:41:14;;;;;;;17.38;2.63;;;;;;;13.76;100.00;101640.75;4915565;29;20063;-95
2024/02/18 15:43:43;;;;;;;18.10;2.67;;;;;;;13.66;100.00;101642.50;4892857;29;20554;-94
2024/02/18 15:46:09;;;;;;;13.55;2.67;;;;;;;13.49;100.00;101652.78;4895463;29;20040;-92
2024/02/18 15:48:38;;;;;;;20.05;2.92;;;;;;;13.45;100.00;101649.56;4898890;29;20042;-95
2024/02/18 15:51:19;;;;;;;13.60;2.75;;;;;;;13.34;100.00;101660.25;4907861;29;20126;-93
2024/02/18 15:53:45;;;;;;;21.15;3.33;;;;;;;13.26;100.00;101661.78;4896826;29;20126;-93
2024/02/18 15:56:23;;;;;;;20.20;3.05;;;;;;;13.31;100.00;101671.16;4923763;29;20043;-91
2024/02/18 15:58:55;;;;;;;15.63;3.05;;;;;;;13.18;100.00;101660.72;4901612;29;20050;-93
2024/02/18 16:01:27;;;;;;;12.38;2.13;;;;;;;13.13;100.00;101667.28;4886285;29;20035;-92
2024/02/18 16:03:53;;;;;;;21.15;4.32;;;;;;;13.05;100.00;101677.72;4903844;29;20031;-92
2024/02/18 16:06:19;;;;;;;18.50;3.50;;;;;;;12.94;100.00;101670.66;4916940;29;20533;-92
2024/02/18 16:08:50;;;;;;;20.05;3.95;;;;;;;12.90;100.00;101678.03;4901890;29;20122;-94
2024/02/18 16:11:19;;;;;;;17.17;3.25;;;;;;;12.75;100.00;101697.91;4903153;29;20047;-92
2024/02/18 16:13:45;;;;;;;14.85;2.92;;;;;;;12.65;100.00;101705.75;4885991;29;20040;-93
2024/02/18 16:16:12;;;;;;;19.25;3.92;;;;;;;12.63;100.00;101702.38;4897573;29;20077;-92
2024/02/18 16:18:38;;;;;;;21.55;3.53;;;;;;;12.60;100.00;101705.28;4904220;29;20390;-91
2024/02/18 16:21:06;;;;;;;15.02;2.95;;;;;;;12.50;100.00;101707.88;4891636;29;20043;-92
2024/02/18 16:23:32;;;;;;;23.50;3.35;;;;;;;12.46;100.00;101714.38;4884593;29;20574;-92
2024/02/18 16:26:00;;;;;;;22.95;3.60;;;;;;;12.35;100.00;101709.97;4914915;29;20138;-91
2024/02/18 16:28:35;;;;;;;14.88;2.58;;;;;;;12.30;100.00;101712.13;4890255;29;20035;-91
2024/02/18 16:31:01;;;;;;;18.15;2.58;;;;;;;12.24;100.00;101721.44;4902258;29;20040;-92
2024/02/18 16:33:27;;;;;;;17.25;3.50;;;;;;;12.21;100.00;101735.78;4890779;29;20122;-92
2024/02/18 16:35:53;;;;;;;20.15;3.58;;;;;;;12.11;100.00;101734.81;4902743;29;20027;-93
2024/02/18 16:38:19;;;;;;;18.33;3.45;;;;;;;12.05;100.00;101733.50;4906491;29;20494;-92
2024/02/18 16:40:45;;;;;;;20.05;3.20;;;;;;;12.02;100.00;101734.56;4902199;29;20101;-91
2024/02/18 16:43:10;;;;;;;16.75;3.75;;;;;;;12.04;100.00;101745.03;4906631;29;20038;-92
2024/02/18 16:45:36;;;;;;;18.13;2.63;;;;;;;12.03;100.00;101748.66;4901360;29;20047;-92
2024/02/18 16:48:02;;;;;;;19.75;3.35;;;;;;;12.00;100.00;101741.81;4914350;29;20048;-91
2024/02/18 16:50:28;;;;;;;22.33;3.55;;;;;;;11.98;100.00;101740.22;4921134;29;20095;-93
2024/02/18 16:52:54;;;;;;;25.25;3.22;;;;;;;12.02;100.00;101745.16;4884926;29;20414;-93
2024/02/18 16:55:20;;;;;;;17.25;2.60;;;;;;;12.03;100.00;101735.41;4905829;29;20036;-93
2024/02/18 16:57:49;;;;;;;16.13;3.30;;;;;;;12.10;100.00;101726.06;4931210;29;20479;-93
2024/02/18 17:00:18;;;;;;;19.58;3.47;;;;;;;12.06;100.00;101731.66;4892115;29;20039;-93
2024/02/18 17:02:44;;;;;;;21.90;3.75;;;;;;;12.08;100.00;101740.38;4883917;29;20040;-93
2024/02/18 17:05:14;;;;;;;18.08;3.05;;;;;;;12.07;100.00;101742.13;4894732;29;20035;-93
2024/02/18 17:07:41;;;;;;;20.75;3.33;;;;;;;12.05;100.00;101752.03;4917959;29;20122;-93
2024/02/18 17:10:07;;;;;;;15.70;3.00;;;;;;;12.06;100.00;101751.06;4918521;29;20062;-93
2024/02/18 17:12:36;;;;;;;15.77;2.85;;;;;;;12.01;100.00;101751.44;4902060;29;20498;-93
2024/02/18 17:15:15;;;;;;;20.98;3.40;;;;;;;11.98;100.00;101761.44;4915416;29;20104;-94
2024/02/18 17:17:44;;;;;;;20.27;2.83;;;;;;;11.88;100.00;101751.56;4902790;29;20032;-93
2024/02/18 17:20:23;;;;;;;20.10;3.30;;;;;;;11.88;100.00;101761.31;4892883;29;20047;-91
2024/02/18 17:22:54;;;;;;;18.55;2.80;;;;;;;11.80;100.00;101769.88;4909947;29;20036;-92
2024/02/18 17:25:20;;;;;;;14.23;2.83;;;;;;;11.81;100.00;101765.41;4909571;29;20062;-93
2024/02/18 17:27:48;;;;;;;19.73;3.17;;;;;;;11.77;100.00;101756.84;4906692;29;20038;-93
2024/02/18 17:30:26;;;;;;;19.42;3.40;;;;;;;11.77;100.00;101767.44;4918948;29;20835;-93
2024/02/18 17:32:52;;;;;;;18.83;2.80;;;;;;;11.79;100.00;101766.38;4902600;29;20044;-92
2024/02/18 17:35:18;;;;;;;27.27;3.50;;;;;;;11.77;100.00;101759.50;4906136;29;20044;-94
2024/02/18 17:37:46;;;;;;;33.15;4.68;;;;;;;11.78;100.00;101767.31;4899907;29;20272;-93
2024/02/18 17:40:16;;;;;;;25.92;4.13;;;;;;;11.78;100.00;101755.91;4888991;29;20117;-92
2024/02/18 17:42:59;;;;;;;24.15;3.40;;;;;;;11.70;100.00;101748.56;4891038;29;20042;-93
2024/02/18 17:45:56;;;;;;;27.20;4.32;;;;;;;11.62;100.00;101748.31;4908961;29;20035;-94
2024/02/18 17:48:32;;;;;;;32.13;4.70;;;;;;;11.62;100.00;101741.22;4906825;29;20039;-93
2024/02/18 17:51:13;;;;;;;23.63;3.65;;;;;;;11.59;100.00;101741.44;4892590;29;20035;-93
2024/02/18 17:53:39;;;;;;;27.02;5.43;;;;;;;11.46;100.00;101741.53;4909949;29;20039;-93
2024/02/18 17:56:07;;;;;;;18.40;3.22;;;;;;;11.47;100.00;101750.31;4915004;29;20043;-93
2024/02/18 17:58:56;;;;;;;25.10;3.70;;;;;;;11.46;100.00;101759.22;4909330;29;20078;-94
2024/02/18 18:01:29;;;;;;;31.33;4.82;;;;;;;11.39;100.00;101759.69;4892189;29;20134;-94
2024/02/18 18:04:02;;;;;;;22.33;3.72;;;;;;;11.31;100.00;101763.91;4907711;29;20036;-95
2024/02/18 18:07:08;;;;;;;27.40;3.95;;;;;;;11.34;100.00;101768.97;4900279;29;20138;-93
2024/02/18 18:09:36;;;;;;;27.65;4.55;;;;;;;11.26;100.00;101783.59;4915074;29;20035;-94
2024/02/18 18:12:16;;;;;;;25.80;4.57;;;;;;;11.26;100.00;101791.53;4870172;29;20048;-95
2024/02/18 18:14:44;;;;;;;24.90;4.40;;;;;;;11.20;100.00;101807.03;4859724;29;20045;-94
2024/02/18 18:17:20;;;;;;;23.90;5.22;;;;;;;11.18;100.00;101798.38;4872532;29;20043;-95
2024/02/18 18:19:50;;;;;;;31.58;7.13;;;;;;;11.09;100.00;101791.97;4854480;29;20040;-94
2024/02/18 18:22:19;;;;;;;26.00;7.97;;;;;;;11.09;100.00;101786.66;4869658;29;20062;-94
2024/02/18 18:24:47;;;;;;;30.40;10.25;;;;;;;11.03;100.00;101790.63;4864324;29;20064;-94
2024/02/18 18:27:19;;;;;;;28.00;8.85;;;;;;;11.04;100.00;101789.66;4878068;29;20036;-94
2024/02/18 18:29:46;;;;;;;23.63;6.32;;;;;;;11.01;100.00;101795.19;4851195;29;20144;-94
2024/02/18 18:32:12;;;;;;;36.05;11.70;;;;;;;10.97;100.00;101785.78;4868126;29;20123;-94
2024/02/18 18:34:44;;;;;;;26.15;6.50;;;;;;;10.96;100.00;101784.13;4862465;29;20072;-94
2024/02/18 18:37:17;;;;;;;14.25;3.92;;;;;;;10.92;100.00;101791.41;4857906;29;20168;-94
2024/02/18 18:39:53;;;;;;;27.83;4.80;;;;;;;10.82;100.00;101791.25;4874920;29;20048;-93
2024/02/18 18:42:25;;;;;;;55.38;23.08;;;;;;;10.79;100.00;101773.81;4867095;29;20135;-94
2024/02/18 18:44:56;;;;;;;145.20;87.18;;;;;;;10.84;100.00;101777.91;4865750;29;20719;-93
2024/02/18 18:51:04;;;;;;;35.10;10.32;;;;;;;10.79;100.00;101789.69;4920678;29;20035;-95
2024/02/18 18:53:59;;;;;;;44.55;15.95;;;;;;;10.75;100.00;101774.97;4914578;29;20152;-95
2024/02/18 18:56:33;;;;;;;38.47;11.68;;;;;;;10.77;100.00;101790.72;4895633;29;21231;-94
2024/02/18 18:59:04;;;;;;;39.47;16.92;;;;;;;10.78;100.00;101792.44;4919504;29;20058;-94
2024/02/18 19:01:31;;;;;;;51.40;21.42;;;;;;;10.72;100.00;101803.47;4886260;29;20099;-94
2024/02/18 19:04:03;;;;;;;63.15;24.85;;;;;;;10.66;100.00;101799.44;4904285;29;20034;-91
2024/02/18 19:06:32;;;;;;;19.52;5.38;;;;;;;10.58;100.00;101805.31;4903101;29;20052;-93
2024/02/18 19:08:58;;;;;;;23.85;5.28;;;;;;;10.50;100.00;101811.13;4902665;29;20035;-94
2024/02/18 19:11:32;;;;;;;31.90;12.32;;;;;;;10.42;100.00;101806.38;4919016;29;20054;-92
2024/02/18 19:14:02;;;;;;;32.30;9.23;;;;;;;10.37;100.00;101812.91;4922104;29;20090;-95
2024/02/18 19:16:40;;;;;;;44.13;15.02;;;;;;;10.30;100.00;101805.44;4893215;29;20490;-94
2024/02/18 19:19:12;;;;;;;56.63;22.80;;;;;;;10.27;100.00;101804.81;4923808;29;20061;-95
2024/02/18 19:21:43;;;;;;;25.58;6.85;;;;;;;10.26;100.00;101816.34;4900260;29;20139;-94
2024/02/18 19:24:35;;;;;;;25.90;7.70;;;;;;;10.31;100.00;101814.22;4899026;29;20490;-94
2024/02/18 19:27:15;;;;;;;31.00;5.40;;;;;;;10.20;100.00;101827.34;4894156;29;20058;-95
2024/02/18 19:30:19;;;;;;;20.98;3.70;;;;;;;10.11;100.00;101829.69;4902557;29;20032;-95
2024/02/18 19:33:57;;;;;;;21.55;3.83;;;;;;;10.01;100.00;101831.25;4937877;29;20075;-95
2024/02/18 19:36:52;;;;;;;19.80;4.20;;;;;;;9.94;100.00;101822.91;4922926;29;20031;-95
2024/02/18 19:39:18;;;;;;;25.33;4.47;;;;;;;9.90;100.00;101818.81;4905628;29;20142;-94
2024/02/18 19:41:47;;;;;;;24.30;4.43;;;;;;;9.94;100.00;101825.56;4920872;29;20043;-94
2024/02/18 19:44:16;;;;;;;32.33;4.88;;;;;;;9.97;100.00;101833.25;4902414;29;20028;-94
2024/02/18 19:46:43;;;;;;;21.27;5.03;;;;;;;9.94;100.00;101825.56;4886519;29;20070;-93
2024/02/18 19:49:24;;;;;;;29.88;8.43;;;;;;;10.00;100.00;101817.19;4890956;29;20426;-95
2024/02/18 19:52:01;;;;;;;31.50;10.93;;;;;;;10.02;100.00;101817.94;4906314;29;20034;-94
2024/02/18 19:54:30;;;;;;;34.00;12.00;;;;;;;9.95;100.00;101807.91;4902534;29;20042;-94
2024/02/18 19:57:01;;;;;;;30.58;7.35;;;;;;;10.02;100.00;101807.38;4889098;29;20044;-95
2024/02/18 19:59:45;;;;;;;35.80;6.60;;;;;;;9.98;100.00;101811.19;4912790;29;20051;-95
2024/02/18 20:02:20;;;;;;;37.38;8.15;;;;;;;9.98;100.00;101816.47;4910198;29;20514;-95
2024/02/18 20:04:57;;;;;;;33.63;6.80;;;;;;;10.00;100.00;101821.66;4895308;29;20403;-95
2024/02/18 20:07:24;;;;;;;29.50;4.80;;;;;;;9.90;100.00;101824.09;4892670;29;20043;-95
2024/02/18 20:09:51;;;;;;;26.02;4.43;;;;;;;9.85;100.00;101811.19;4916346;29;20054;-95
2024/02/18 20:12:17;;;;;;;27.40;4.60;;;;;;;9.79;100.00;101807.16;4917615;29;20205;-93
2024/02/18 20:14:44;;;;;;;33.65;7.72;;;;;;;9.80;100.00;101816.78;4912378;29;20118;-93
2024/02/18 20:17:15;;;;;;;32.45;6.80;;;;;;;9.79;100.00;101807.16;4901988;29;20516;-94
2024/02/18 20:19:45;;;;;;;29.77;5.75;;;;;;;9.78;100.00;101810.75;4920352;29;20039;-94
2024/02/18 20:22:17;;;;;;;28.48;6.90;;;;;;;9.70;100.00;101801.69;4918722;29;20057;-93
2024/02/18 20:24:47;;;;;;;29.50;6.38;;;;;;;9.72;100.00;101807.69;4903467;29;20402;-94
2024/02/18 20:27:15;;;;;;;30.55;6.00;;;;;;;9.61;100.00;101796.09;4920656;29;20036;-94
2024/02/18 20:29:46;;;;;;;35.70;7.40;;;;;;;9.66;100.00;101803.69;4888141;29;20036;-95
2024/02/18 20:32:15;;;;;;;45.47;9.02;;;;;;;9.63;100.00;101796.84;4904322;29;20036;-94
2024/02/18 20:34:44;;;;;;;32.72;12.18;;;;;;;9.72;100.00;101799.78;4911140;29;20081;-93
2024/02/18 20:37:10;;;;;;;30.42;6.72;;;;;;;9.62;100.00;101791.66;4905800;29;20036;-94
2024/02/18 20:39:41;;;;;;;28.30;7.15;;;;;;;9.65;100.00;101791.44;4887396;29;20757;-94
2024/02/18 20:42:17;;;;;;;23.60;4.50;;;;;;;9.59;100.00;101791.88;4913929;29;20071;-94
2024/02/18 20:44:43;;;;;;;;;;;;;;;9.55;100.00;101783.31;4902088;29;20039;-92
2024/02/18 20:47:15;;;;;;;30.55;9.98;;;;;;;9.53;100.00;101775.50;4918083;29;20349;-94
2024/02/18 20:49:45;;;;;;;31.20;7.50;;;;;;;9.57;100.00;101791.13;4900209;29;20054;-94
2024/02/18 20:52:15;;;;;;;29.10;6.43;;;;;;;9.62;100.00;101791.66;4900333;29;20041;-92
2024/02/18 20:55:01;;;;;;;28.08;7.35;;;;;;;9.67;100.00;101781.59;4905334;29;20043;-93
2024/02/18 20:57:32;;;;;;;36.38;10.80;;;;;;;9.64;100.00;101773.91;4906118;29;20131;-92
2024/02/18 20:59:58;;;;;;;40.20;11.65;;;;;;;9.65;100.00;101778.25;4899639;29;20047;-93
2024/02/18 21:02:27;;;;;;;28.42;6.18;;;;;;;9.69;100.00;101777.06;4902389;29;20080;-93
2024/02/18 21:04:56;;;;;;;31.08;6.85;;;;;;;9.76;100.00;101764.31;4886037;29;20043;-93
2024/02/18 21:07:22;;;;;;;36.85;6.10;;;;;;;9.70;100.00;101760.28;4931867;29;20039;-94